sensor_id;sensor_type;location;lat;lon;timestamp;P1;durP1;ratioP1;P2;durP2;ratioP2
7479;SDS011;3781;42.272;22.658;2023-02-28T00:00:18;0.47;;;0.47;;
7479;SDS011;3781;42.272;22.658;2023-02-28T00:02:46;0.43;;;0.43;;
7479;SDS011;3781;42.272;22.658;2023-02-28T00:05:15;1.57;;;0.87;;
7479;SDS011;3781;42.272;22.658;2023-02-28T00:07:44;2.53;;;0.50;;
7479;SDS011;3781;42.272;22.658;2023-02-28T00:10:12;0.97;;;0.90;;
7479;SDS011;3781;42.272;22.658;2023-02-28T00:12:44;0.40;;;0.40;;
7479;SDS011;3781;42.272;22.658;2023-02-28T00:15:11;2.13;;;1.03;;
7479;SDS011;3781;42.272;22.658;2023-02-28T00:17:37;0.40;;;0.40;;
7479;SDS011;3781;42.272;22.658;2023-02-28T00:20:05;2.27;;;1.57;;
7479;SDS011;3781;42.272;22.658;2023-02-28T00:22:35;2.23;;;1.87;;
7479;SDS011;3781;42.272;22.658;2023-02-28T00:25:04;0.20;;;0.20;;
7479;SDS011;3781;42.272;22.658;2023-02-28T00:27:33;0.33;;;0.33;;
7479;SDS011;3781;42.272;22.658;2023-02-28T00:30:00;1.20;;;1.07;;
7479;SDS011;3781;42.272;22.658;2023-02-28T00:32:27;0.60;;;0.60;;
7479;SDS011;3781;42.272;22.658;2023-02-28T00:34:54;0.63;;;0.60;;
7479;SDS011;3781;42.272;22.658;2023-02-28T00:37:21;1.13;;;1.03;;
7479;SDS011;3781;42.272;22.658;2023-02-28T00:39:48;0.97;;;0.90;;
7479;SDS011;3781;42.272;22.658;2023-02-28T00:42:16;3.73;;;1.80;;
7479;SDS011;3781;42.272;22.658;2023-02-28T00:44:43;2.63;;;2.43;;
7479;SDS011;3781;42.272;22.658;2023-02-28T00:47:10;1.13;;;0.53;;
7479;SDS011;3781;42.272;22.658;2023-02-28T00:49:36;1.47;;;1.37;;
7479;SDS011;3781;42.272;22.658;2023-02-28T00:52:03;0.83;;;0.83;;
7479;SDS011;3781;42.272;22.658;2023-02-28T00:54:30;1.27;;;1.27;;
7479;SDS011;3781;42.272;22.658;2023-02-28T00:56:57;2.43;;;1.80;;
7479;SDS011;3781;42.272;22.658;2023-02-28T00:59:25;3.80;;;1.53;;
7479;SDS011;3781;42.272;22.658;2023-02-28T01:01:52;2.97;;;2.30;;
7479;SDS011;3781;42.272;22.658;2023-02-28T01:04:18;5.67;;;2.13;;
7479;SDS011;3781;42.272;22.658;2023-02-28T01:06:45;2.37;;;1.03;;
7479;SDS011;3781;42.272;22.658;2023-02-28T01:09:12;1.90;;;0.87;;
7479;SDS011;3781;42.272;22.658;2023-02-28T01:11:39;0.70;;;0.57;;
7479;SDS011;3781;42.272;22.658;2023-02-28T01:14:09;2.87;;;1.40;;
7479;SDS011;3781;42.272;22.658;2023-02-28T01:16:40;3.10;;;1.53;;
7479;SDS011;3781;42.272;22.658;2023-02-28T01:19:07;1.07;;;0.90;;
7479;SDS011;3781;42.272;22.658;2023-02-28T01:21:34;0.73;;;0.73;;
7479;SDS011;3781;42.272;22.658;2023-02-28T01:24:01;0.60;;;0.60;;
7479;SDS011;3781;42.272;22.658;2023-02-28T01:26:28;7.30;;;1.13;;
7479;SDS011;3781;42.272;22.658;2023-02-28T01:28:56;3.37;;;1.70;;
7479;SDS011;3781;42.272;22.658;2023-02-28T01:31:23;2.07;;;1.20;;
7479;SDS011;3781;42.272;22.658;2023-02-28T01:33:51;1.03;;;1.03;;
7479;SDS011;3781;42.272;22.658;2023-02-28T01:36:19;1.53;;;1.37;;
7479;SDS011;3781;42.272;22.658;2023-02-28T01:38:48;0.27;;;0.27;;
7479;SDS011;3781;42.272;22.658;2023-02-28T01:41:16;0.60;;;0.60;;
7479;SDS011;3781;42.272;22.658;2023-02-28T01:43:55;1.07;;;1.07;;
7479;SDS011;3781;42.272;22.658;2023-02-28T01:46:24;0.97;;;0.83;;
7479;SDS011;3781;42.272;22.658;2023-02-28T01:48:52;0.63;;;0.63;;
7479;SDS011;3781;42.272;22.658;2023-02-28T01:51:24;0.93;;;0.50;;
7479;SDS011;3781;42.272;22.658;2023-02-28T01:53:55;0.43;;;0.43;;
7479;SDS011;3781;42.272;22.658;2023-02-28T01:56:26;0.37;;;0.37;;
7479;SDS011;3781;42.272;22.658;2023-02-28T01:58:55;0.37;;;0.23;;
7479;SDS011;3781;42.272;22.658;2023-02-28T02:01:23;1.30;;;0.83;;
7479;SDS011;3781;42.272;22.658;2023-02-28T02:03:55;0.33;;;0.33;;
7479;SDS011;3781;42.272;22.658;2023-02-28T02:06:24;0.60;;;0.53;;
7479;SDS011;3781;42.272;22.658;2023-02-28T02:08:53;0.37;;;0.17;;
7479;SDS011;3781;42.272;22.658;2023-02-28T02:11:20;0.10;;;0.10;;
7479;SDS011;3781;42.272;22.658;2023-02-28T02:13:55;0.37;;;0.37;;
7479;SDS011;3781;42.272;22.658;2023-02-28T02:16:38;0.30;;;0.27;;
7479;SDS011;3781;42.272;22.658;2023-02-28T02:22:32;1.20;;;1.03;;
7479;SDS011;3781;42.272;22.658;2023-02-28T02:25:19;0.73;;;0.73;;
7479;SDS011;3781;42.272;22.658;2023-02-28T02:27:59;0.70;;;0.70;;
7479;SDS011;3781;42.272;22.658;2023-02-28T02:31:04;0.27;;;0.27;;
7479;SDS011;3781;42.272;22.658;2023-02-28T02:36:47;0.97;;;0.97;;
7479;SDS011;3781;42.272;22.658;2023-02-28T02:39:18;2.17;;;1.47;;
7479;SDS011;3781;42.272;22.658;2023-02-28T02:41:51;0.10;;;0.10;;
7479;SDS011;3781;42.272;22.658;2023-02-28T02:44:20;0.10;;;0.10;;
7479;SDS011;3781;42.272;22.658;2023-02-28T02:46:51;0.47;;;0.43;;
7479;SDS011;3781;42.272;22.658;2023-02-28T02:49:23;0.30;;;0.30;;
7479;SDS011;3781;42.272;22.658;2023-02-28T02:51:53;0.50;;;0.37;;
7479;SDS011;3781;42.272;22.658;2023-02-28T02:54:23;0.10;;;0.10;;
7479;SDS011;3781;42.272;22.658;2023-02-28T02:56:53;0.87;;;0.37;;
7479;SDS011;3781;42.272;22.658;2023-02-28T02:59:23;2.23;;;0.73;;
7479;SDS011;3781;42.272;22.658;2023-02-28T03:01:52;0.30;;;0.30;;
7479;SDS011;3781;42.272;22.658;2023-02-28T03:04:25;3.30;;;1.03;;
7479;SDS011;3781;42.272;22.658;2023-02-28T03:06:56;2.20;;;1.03;;
7479;SDS011;3781;42.272;22.658;2023-02-28T03:09:24;0.90;;;0.90;;
7479;SDS011;3781;42.272;22.658;2023-02-28T03:11:52;0.87;;;0.73;;
7479;SDS011;3781;42.272;22.658;2023-02-28T03:17:20;0.23;;;0.17;;
7479;SDS011;3781;42.272;22.658;2023-02-28T03:20:11;3.27;;;1.43;;
7479;SDS011;3781;42.272;22.658;2023-02-28T03:22:45;1.07;;;1.00;;
7479;SDS011;3781;42.272;22.658;2023-02-28T03:25:20;0.33;;;0.33;;
7479;SDS011;3781;42.272;22.658;2023-02-28T03:27:53;2.60;;;1.00;;
7479;SDS011;3781;42.272;22.658;2023-02-28T03:30:29;1.10;;;1.03;;
7479;SDS011;3781;42.272;22.658;2023-02-28T03:33:05;2.60;;;1.40;;
7479;SDS011;3781;42.272;22.658;2023-02-28T03:35:39;1.90;;;1.80;;
7479;SDS011;3781;42.272;22.658;2023-02-28T03:38:11;1.40;;;1.40;;
7479;SDS011;3781;42.272;22.658;2023-02-28T03:40:41;2.73;;;2.43;;
7479;SDS011;3781;42.272;22.658;2023-02-28T03:43:13;1.50;;;1.40;;
7479;SDS011;3781;42.272;22.658;2023-02-28T03:45:44;3.97;;;1.03;;
7479;SDS011;3781;42.272;22.658;2023-02-28T03:48:15;1.47;;;1.33;;
7479;SDS011;3781;42.272;22.658;2023-02-28T03:50:47;12.43;;;3.57;;
7479;SDS011;3781;42.272;22.658;2023-02-28T03:53:19;2.67;;;1.00;;
7479;SDS011;3781;42.272;22.658;2023-02-28T03:55:49;1.83;;;1.47;;
7479;SDS011;3781;42.272;22.658;2023-02-28T03:58:21;4.17;;;1.93;;
7479;SDS011;3781;42.272;22.658;2023-02-28T04:00:55;0.93;;;0.90;;
7479;SDS011;3781;42.272;22.658;2023-02-28T04:03:33;1.97;;;1.47;;
7479;SDS011;3781;42.272;22.658;2023-02-28T04:06:02;2.33;;;1.20;;
7479;SDS011;3781;42.272;22.658;2023-02-28T04:08:32;1.07;;;0.93;;
7479;SDS011;3781;42.272;22.658;2023-02-28T04:11:00;3.33;;;1.23;;
7479;SDS011;3781;42.272;22.658;2023-02-28T04:13:29;1.23;;;1.13;;
7479;SDS011;3781;42.272;22.658;2023-02-28T04:15:56;0.77;;;0.77;;
7479;SDS011;3781;42.272;22.658;2023-02-28T04:18:23;0.47;;;0.47;;
7479;SDS011;3781;42.272;22.658;2023-02-28T04:20:49;0.60;;;0.60;;
7479;SDS011;3781;42.272;22.658;2023-02-28T04:23:17;1.63;;;1.53;;
7479;SDS011;3781;42.272;22.658;2023-02-28T04:25:44;1.13;;;1.03;;
7479;SDS011;3781;42.272;22.658;2023-02-28T04:28:11;0.23;;;0.23;;
7479;SDS011;3781;42.272;22.658;2023-02-28T04:30:38;2.50;;;1.27;;
7479;SDS011;3781;42.272;22.658;2023-02-28T04:33:05;1.57;;;1.47;;
7479;SDS011;3781;42.272;22.658;2023-02-28T04:35:32;8.40;;;2.03;;
7479;SDS011;3781;42.272;22.658;2023-02-28T04:37:59;0.50;;;0.50;;
7479;SDS011;3781;42.272;22.658;2023-02-28T04:40:27;1.60;;;1.30;;
7479;SDS011;3781;42.272;22.658;2023-02-28T04:42:54;9.33;;;1.73;;
7479;SDS011;3781;42.272;22.658;2023-02-28T04:45:21;2.50;;;2.30;;
7479;SDS011;3781;42.272;22.658;2023-02-28T04:47:47;4.70;;;1.97;;
7479;SDS011;3781;42.272;22.658;2023-02-28T04:50:14;1.60;;;1.60;;
7479;SDS011;3781;42.272;22.658;2023-02-28T04:52:41;0.67;;;0.67;;
7479;SDS011;3781;42.272;22.658;2023-02-28T04:55:08;3.00;;;1.70;;
7479;SDS011;3781;42.272;22.658;2023-02-28T04:57:37;8.30;;;2.80;;
7479;SDS011;3781;42.272;22.658;2023-02-28T05:00:04;2.03;;;1.83;;
7479;SDS011;3781;42.272;22.658;2023-02-28T05:02:36;2.37;;;1.80;;
7479;SDS011;3781;42.272;22.658;2023-02-28T05:05:03;0.87;;;0.87;;
7479;SDS011;3781;42.272;22.658;2023-02-28T05:07:30;5.53;;;1.60;;
7479;SDS011;3781;42.272;22.658;2023-02-28T05:09:57;1.17;;;1.17;;
7479;SDS011;3781;42.272;22.658;2023-02-28T05:12:24;1.73;;;1.50;;
7479;SDS011;3781;42.272;22.658;2023-02-28T05:14:52;6.93;;;1.53;;
7479;SDS011;3781;42.272;22.658;2023-02-28T05:17:19;0.90;;;0.90;;
7479;SDS011;3781;42.272;22.658;2023-02-28T05:19:45;2.00;;;0.53;;
7479;SDS011;3781;42.272;22.658;2023-02-28T05:22:13;7.00;;;2.30;;
7479;SDS011;3781;42.272;22.658;2023-02-28T05:24:41;1.37;;;1.37;;
7479;SDS011;3781;42.272;22.658;2023-02-28T05:27:09;1.83;;;1.70;;
7479;SDS011;3781;42.272;22.658;2023-02-28T05:29:36;0.20;;;0.20;;
7479;SDS011;3781;42.272;22.658;2023-02-28T05:32:08;2.30;;;1.57;;
7479;SDS011;3781;42.272;22.658;2023-02-28T05:34:36;1.17;;;1.17;;
7479;SDS011;3781;42.272;22.658;2023-02-28T05:37:03;3.60;;;1.70;;
7479;SDS011;3781;42.272;22.658;2023-02-28T05:39:30;3.17;;;1.93;;
7479;SDS011;3781;42.272;22.658;2023-02-28T05:41:57;7.10;;;1.67;;
7479;SDS011;3781;42.272;22.658;2023-02-28T05:44:24;2.37;;;2.20;;
7479;SDS011;3781;42.272;22.658;2023-02-28T05:46:51;2.07;;;1.80;;
7479;SDS011;3781;42.272;22.658;2023-02-28T05:49:19;1.97;;;1.87;;
7479;SDS011;3781;42.272;22.658;2023-02-28T05:51:46;4.57;;;3.37;;
7479;SDS011;3781;42.272;22.658;2023-02-28T05:54:12;3.23;;;2.07;;
7479;SDS011;3781;42.272;22.658;2023-02-28T05:56:39;4.77;;;3.70;;
7479;SDS011;3781;42.272;22.658;2023-02-28T05:59:09;5.73;;;2.63;;
7479;SDS011;3781;42.272;22.658;2023-02-28T06:01:36;2.63;;;1.40;;
7479;SDS011;3781;42.272;22.658;2023-02-28T06:04:05;10.10;;;3.50;;
7479;SDS011;3781;42.272;22.658;2023-02-28T06:06:34;6.47;;;4.37;;
7479;SDS011;3781;42.272;22.658;2023-02-28T06:09:02;11.60;;;7.23;;
7479;SDS011;3781;42.272;22.658;2023-02-28T06:11:29;13.00;;;7.27;;
7479;SDS011;3781;42.272;22.658;2023-02-28T06:13:56;5.20;;;4.00;;
7479;SDS011;3781;42.272;22.658;2023-02-28T06:16:24;7.30;;;4.47;;
7479;SDS011;3781;42.272;22.658;2023-02-28T06:18:52;9.20;;;6.03;;
7479;SDS011;3781;42.272;22.658;2023-02-28T06:21:20;3.53;;;3.23;;
7479;SDS011;3781;42.272;22.658;2023-02-28T06:23:48;17.23;;;5.53;;
7479;SDS011;3781;42.272;22.658;2023-02-28T06:26:15;6.40;;;4.47;;
7479;SDS011;3781;42.272;22.658;2023-02-28T06:28:42;10.07;;;3.57;;
7479;SDS011;3781;42.272;22.658;2023-02-28T06:31:09;11.10;;;5.23;;
7479;SDS011;3781;42.272;22.658;2023-02-28T06:33:38;2.27;;;2.07;;
7479;SDS011;3781;42.272;22.658;2023-02-28T06:36:06;24.27;;;2.60;;
7479;SDS011;3781;42.272;22.658;2023-02-28T06:38:33;6.97;;;2.63;;
7479;SDS011;3781;42.272;22.658;2023-02-28T06:41:02;4.07;;;3.37;;
7479;SDS011;3781;42.272;22.658;2023-02-28T06:43:31;8.40;;;3.10;;
7479;SDS011;3781;42.272;22.658;2023-02-28T06:46:01;3.77;;;2.07;;
7479;SDS011;3781;42.272;22.658;2023-02-28T06:48:30;3.73;;;1.53;;
7479;SDS011;3781;42.272;22.658;2023-02-28T06:51:03;2.60;;;2.37;;
7479;SDS011;3781;42.272;22.658;2023-02-28T06:53:31;12.43;;;3.13;;
7479;SDS011;3781;42.272;22.658;2023-02-28T06:55:58;3.43;;;2.40;;
7479;SDS011;3781;42.272;22.658;2023-02-28T06:58:26;9.33;;;3.00;;
7479;SDS011;3781;42.272;22.658;2023-02-28T07:00:53;13.43;;;4.57;;
7479;SDS011;3781;42.272;22.658;2023-02-28T07:03:21;8.37;;;2.93;;
7479;SDS011;3781;42.272;22.658;2023-02-28T07:05:48;7.90;;;3.93;;
7479;SDS011;3781;42.272;22.658;2023-02-28T07:08:16;5.07;;;3.13;;
7479;SDS011;3781;42.272;22.658;2023-02-28T07:10:43;5.47;;;2.70;;
7479;SDS011;3781;42.272;22.658;2023-02-28T07:13:10;8.47;;;2.77;;
7479;SDS011;3781;42.272;22.658;2023-02-28T07:15:39;4.77;;;2.40;;
7479;SDS011;3781;42.272;22.658;2023-02-28T07:18:05;4.83;;;3.47;;
7479;SDS011;3781;42.272;22.658;2023-02-28T07:20:32;2.60;;;2.37;;
7479;SDS011;3781;42.272;22.658;2023-02-28T07:22:59;9.03;;;2.03;;
7479;SDS011;3781;42.272;22.658;2023-02-28T07:25:26;3.83;;;2.60;;
7479;SDS011;3781;42.272;22.658;2023-02-28T07:27:54;6.23;;;4.23;;
7479;SDS011;3781;42.272;22.658;2023-02-28T07:30:24;13.73;;;4.10;;
7479;SDS011;3781;42.272;22.658;2023-02-28T07:32:52;6.53;;;3.67;;
7479;SDS011;3781;42.272;22.658;2023-02-28T07:35:19;3.67;;;3.37;;
7479;SDS011;3781;42.272;22.658;2023-02-28T07:37:46;4.10;;;2.90;;
7479;SDS011;3781;42.272;22.658;2023-02-28T07:40:13;6.87;;;3.10;;
7479;SDS011;3781;42.272;22.658;2023-02-28T07:42:43;8.23;;;3.30;;
7479;SDS011;3781;42.272;22.658;2023-02-28T07:45:10;8.97;;;2.90;;
7479;SDS011;3781;42.272;22.658;2023-02-28T07:47:37;8.40;;;3.73;;
7479;SDS011;3781;42.272;22.658;2023-02-28T07:50:06;3.63;;;3.00;;
7479;SDS011;3781;42.272;22.658;2023-02-28T07:52:35;6.70;;;4.73;;
7479;SDS011;3781;42.272;22.658;2023-02-28T07:55:03;5.20;;;3.13;;
7479;SDS011;3781;42.272;22.658;2023-02-28T07:57:30;5.17;;;2.43;;
7479;SDS011;3781;42.272;22.658;2023-02-28T07:59:57;2.23;;;1.83;;
7479;SDS011;3781;42.272;22.658;2023-02-28T08:02:24;6.70;;;4.53;;
7479;SDS011;3781;42.272;22.658;2023-02-28T08:04:51;2.27;;;2.07;;
7479;SDS011;3781;42.272;22.658;2023-02-28T08:07:19;4.03;;;1.90;;
7479;SDS011;3781;42.272;22.658;2023-02-28T08:09:46;4.37;;;1.73;;
7479;SDS011;3781;42.272;22.658;2023-02-28T08:12:13;1.80;;;0.93;;
7479;SDS011;3781;42.272;22.658;2023-02-28T08:14:40;6.27;;;2.47;;
7479;SDS011;3781;42.272;22.658;2023-02-28T08:17:06;2.50;;;1.57;;
7479;SDS011;3781;42.272;22.658;2023-02-28T08:19:33;1.60;;;1.50;;
7479;SDS011;3781;42.272;22.658;2023-02-28T08:22:00;7.13;;;2.97;;
7479;SDS011;3781;42.272;22.658;2023-02-28T08:24:28;2.17;;;2.07;;
7479;SDS011;3781;42.272;22.658;2023-02-28T08:26:55;1.73;;;1.63;;
7479;SDS011;3781;42.272;22.658;2023-02-28T08:29:22;3.30;;;2.43;;
7479;SDS011;3781;42.272;22.658;2023-02-28T08:31:49;2.27;;;2.07;;
7479;SDS011;3781;42.272;22.658;2023-02-28T08:34:16;3.13;;;1.70;;
7479;SDS011;3781;42.272;22.658;2023-02-28T08:36:43;6.10;;;2.17;;
7479;SDS011;3781;42.272;22.658;2023-02-28T08:39:10;2.97;;;2.53;;
7479;SDS011;3781;42.272;22.658;2023-02-28T08:41:39;3.63;;;2.13;;
7479;SDS011;3781;42.272;22.658;2023-02-28T08:44:06;4.23;;;3.40;;
7479;SDS011;3781;42.272;22.658;2023-02-28T08:46:33;3.00;;;2.80;;
7479;SDS011;3781;42.272;22.658;2023-02-28T08:49:00;3.37;;;2.57;;
7479;SDS011;3781;42.272;22.658;2023-02-28T08:51:27;2.37;;;2.17;;
7479;SDS011;3781;42.272;22.658;2023-02-28T08:53:56;5.03;;;2.47;;
7479;SDS011;3781;42.272;22.658;2023-02-28T08:56:25;2.87;;;1.47;;
7479;SDS011;3781;42.272;22.658;2023-02-28T08:58:55;6.03;;;1.83;;
7479;SDS011;3781;42.272;22.658;2023-02-28T09:01:23;6.10;;;1.00;;
7479;SDS011;3781;42.272;22.658;2023-02-28T09:03:53;3.70;;;1.70;;
7479;SDS011;3781;42.272;22.658;2023-02-28T09:06:21;1.03;;;0.93;;
7479;SDS011;3781;42.272;22.658;2023-02-28T09:08:50;2.50;;;1.83;;
7479;SDS011;3781;42.272;22.658;2023-02-28T09:11:17;9.93;;;1.27;;
7479;SDS011;3781;42.272;22.658;2023-02-28T09:13:45;3.33;;;1.50;;
7479;SDS011;3781;42.272;22.658;2023-02-28T09:16:14;2.67;;;1.03;;
7479;SDS011;3781;42.272;22.658;2023-02-28T09:18:42;7.63;;;2.63;;
7479;SDS011;3781;42.272;22.658;2023-02-28T09:21:10;2.50;;;1.93;;
7479;SDS011;3781;42.272;22.658;2023-02-28T09:23:41;1.50;;;1.13;;
7479;SDS011;3781;42.272;22.658;2023-02-28T09:26:12;3.40;;;0.83;;
7479;SDS011;3781;42.272;22.658;2023-02-28T09:28:40;0.77;;;0.77;;
7479;SDS011;3781;42.272;22.658;2023-02-28T09:31:10;2.00;;;1.90;;
7479;SDS011;3781;42.272;22.658;2023-02-28T09:33:40;1.70;;;0.53;;
7479;SDS011;3781;42.272;22.658;2023-02-28T09:36:07;2.03;;;1.37;;
7479;SDS011;3781;42.272;22.658;2023-02-28T09:38:34;1.00;;;1.00;;
7479;SDS011;3781;42.272;22.658;2023-02-28T09:41:03;4.70;;;0.80;;
7479;SDS011;3781;42.272;22.658;2023-02-28T09:43:37;5.97;;;3.63;;
7479;SDS011;3781;42.272;22.658;2023-02-28T09:46:08;0.77;;;0.77;;
7479;SDS011;3781;42.272;22.658;2023-02-28T09:48:54;3.27;;;1.90;;
7479;SDS011;3781;42.272;22.658;2023-02-28T09:51:28;2.00;;;1.10;;
7479;SDS011;3781;42.272;22.658;2023-02-28T09:54:01;1.80;;;1.10;;
7479;SDS011;3781;42.272;22.658;2023-02-28T09:56:30;1.40;;;1.17;;
7479;SDS011;3781;42.272;22.658;2023-02-28T09:59:00;1.87;;;1.33;;
7479;SDS011;3781;42.272;22.658;2023-02-28T10:01:34;2.27;;;1.07;;
7479;SDS011;3781;42.272;22.658;2023-02-28T10:04:08;1.10;;;1.03;;
7479;SDS011;3781;42.272;22.658;2023-02-28T10:06:44;3.07;;;1.33;;
7479;SDS011;3781;42.272;22.658;2023-02-28T10:09:14;2.97;;;1.37;;
7479;SDS011;3781;42.272;22.658;2023-02-28T10:11:45;1.10;;;0.93;;
7479;SDS011;3781;42.272;22.658;2023-02-28T10:14:14;1.43;;;1.23;;
7479;SDS011;3781;42.272;22.658;2023-02-28T10:16:44;1.10;;;0.97;;
7479;SDS011;3781;42.272;22.658;2023-02-28T10:19:20;3.20;;;1.37;;
7479;SDS011;3781;42.272;22.658;2023-02-28T10:21:54;1.43;;;1.17;;
7479;SDS011;3781;42.272;22.658;2023-02-28T10:24:27;5.60;;;1.27;;
7479;SDS011;3781;42.272;22.658;2023-02-28T10:26:59;2.83;;;1.37;;
7479;SDS011;3781;42.272;22.658;2023-02-28T10:29:28;2.10;;;1.63;;
7479;SDS011;3781;42.272;22.658;2023-02-28T10:31:59;4.60;;;1.83;;
7479;SDS011;3781;42.272;22.658;2023-02-28T10:34:29;0.83;;;0.83;;
7479;SDS011;3781;42.272;22.658;2023-02-28T10:36:56;3.17;;;1.10;;
7479;SDS011;3781;42.272;22.658;2023-02-28T10:39:36;3.47;;;2.90;;
7479;SDS011;3781;42.272;22.658;2023-02-28T10:42:04;3.23;;;2.93;;
7479;SDS011;3781;42.272;22.658;2023-02-28T10:44:44;1.93;;;1.83;;
7479;SDS011;3781;42.272;22.658;2023-02-28T10:47:13;5.60;;;2.27;;
7479;SDS011;3781;42.272;22.658;2023-02-28T10:49:48;2.90;;;2.47;;
7479;SDS011;3781;42.272;22.658;2023-02-28T10:52:32;3.63;;;1.90;;
7479;SDS011;3781;42.272;22.658;2023-02-28T10:55:15;9.23;;;1.23;;
7479;SDS011;3781;42.272;22.658;2023-02-28T10:57:48;10.27;;;2.27;;
7479;SDS011;3781;42.272;22.658;2023-02-28T11:00:16;7.33;;;2.60;;
7479;SDS011;3781;42.272;22.658;2023-02-28T11:02:45;7.63;;;3.07;;
7479;SDS011;3781;42.272;22.658;2023-02-28T11:05:26;2.03;;;1.50;;
7479;SDS011;3781;42.272;22.658;2023-02-28T11:07:55;3.40;;;3.10;;
7479;SDS011;3781;42.272;22.658;2023-02-28T11:10:32;2.20;;;1.53;;
7479;SDS011;3781;42.272;22.658;2023-02-28T11:13:00;7.57;;;2.87;;
7479;SDS011;3781;42.272;22.658;2023-02-28T11:15:28;5.53;;;2.40;;
7479;SDS011;3781;42.272;22.658;2023-02-28T11:17:57;4.77;;;2.60;;
7479;SDS011;3781;42.272;22.658;2023-02-28T11:20:28;8.00;;;2.73;;
7479;SDS011;3781;42.272;22.658;2023-02-28T11:22:57;13.37;;;3.30;;
7479;SDS011;3781;42.272;22.658;2023-02-28T11:25:26;5.17;;;2.30;;
7479;SDS011;3781;42.272;22.658;2023-02-28T11:27:57;9.73;;;2.23;;
7479;SDS011;3781;42.272;22.658;2023-02-28T11:30:31;10.43;;;2.80;;
7479;SDS011;3781;42.272;22.658;2023-02-28T11:33:00;11.80;;;3.43;;
7479;SDS011;3781;42.272;22.658;2023-02-28T11:35:43;4.10;;;2.03;;
7479;SDS011;3781;42.272;22.658;2023-02-28T11:38:10;7.83;;;4.00;;
7479;SDS011;3781;42.272;22.658;2023-02-28T11:40:41;2.43;;;1.93;;
7479;SDS011;3781;42.272;22.658;2023-02-28T11:43:17;5.07;;;1.73;;
7479;SDS011;3781;42.272;22.658;2023-02-28T11:45:57;1.90;;;1.40;;
7479;SDS011;3781;42.272;22.658;2023-02-28T11:48:32;5.33;;;2.13;;
7479;SDS011;3781;42.272;22.658;2023-02-28T11:51:10;2.73;;;1.60;;
7479;SDS011;3781;42.272;22.658;2023-02-28T11:53:50;1.50;;;1.27;;
7479;SDS011;3781;42.272;22.658;2023-02-28T11:56:29;3.20;;;1.63;;
7479;SDS011;3781;42.272;22.658;2023-02-28T11:59:06;7.90;;;1.63;;
7479;SDS011;3781;42.272;22.658;2023-02-28T12:01:55;3.13;;;1.40;;
7479;SDS011;3781;42.272;22.658;2023-02-28T12:04:47;5.23;;;1.77;;
7479;SDS011;3781;42.272;22.658;2023-02-28T12:07:23;2.17;;;1.47;;
7479;SDS011;3781;42.272;22.658;2023-02-28T12:09:59;5.07;;;1.50;;
7479;SDS011;3781;42.272;22.658;2023-02-28T12:12:37;4.80;;;2.93;;
7479;SDS011;3781;42.272;22.658;2023-02-28T12:18:13;4.10;;;2.13;;
7479;SDS011;3781;42.272;22.658;2023-02-28T12:20:54;4.50;;;1.90;;
7479;SDS011;3781;42.272;22.658;2023-02-28T12:23:41;2.27;;;1.80;;
7479;SDS011;3781;42.272;22.658;2023-02-28T12:26:29;2.03;;;1.43;;
7479;SDS011;3781;42.272;22.658;2023-02-28T12:29:04;19.80;;;1.60;;
7479;SDS011;3781;42.272;22.658;2023-02-28T12:31:40;7.17;;;2.30;;
7479;SDS011;3781;42.272;22.658;2023-02-28T12:34:12;2.90;;;1.23;;
7479;SDS011;3781;42.272;22.658;2023-02-28T12:36:41;1.43;;;1.33;;
7479;SDS011;3781;42.272;22.658;2023-02-28T12:39:14;2.40;;;1.40;;
7479;SDS011;3781;42.272;22.658;2023-02-28T12:41:45;1.37;;;1.27;;
7479;SDS011;3781;42.272;22.658;2023-02-28T12:44:17;5.07;;;2.30;;
7479;SDS011;3781;42.272;22.658;2023-02-28T12:46:48;1.70;;;1.37;;
7479;SDS011;3781;42.272;22.658;2023-02-28T12:49:17;2.97;;;2.20;;
7479;SDS011;3781;42.272;22.658;2023-02-28T12:51:52;0.77;;;0.77;;
7479;SDS011;3781;42.272;22.658;2023-02-28T12:54:21;1.20;;;0.80;;
7479;SDS011;3781;42.272;22.658;2023-02-28T12:56:57;1.03;;;0.93;;
7479;SDS011;3781;42.272;22.658;2023-02-28T12:59:31;7.50;;;1.57;;
7479;SDS011;3781;42.272;22.658;2023-02-28T13:02:17;5.00;;;0.90;;
7479;SDS011;3781;42.272;22.658;2023-02-28T13:05:10;3.87;;;1.17;;
7479;SDS011;3781;42.272;22.658;2023-02-28T13:08:18;0.63;;;0.60;;
7479;SDS011;3781;42.272;22.658;2023-02-28T13:10:58;4.90;;;1.17;;
7479;SDS011;3781;42.272;22.658;2023-02-28T13:13:26;1.80;;;0.40;;
7479;SDS011;3781;42.272;22.658;2023-02-28T13:15:59;1.10;;;1.00;;
7479;SDS011;3781;42.272;22.658;2023-02-28T13:18:32;4.80;;;1.47;;
7479;SDS011;3781;42.272;22.658;2023-02-28T13:21:04;0.83;;;0.83;;
7479;SDS011;3781;42.272;22.658;2023-02-28T13:23:37;2.97;;;2.30;;
7479;SDS011;3781;42.272;22.658;2023-02-28T13:26:08;2.40;;;2.03;;
7479;SDS011;3781;42.272;22.658;2023-02-28T13:28:57;4.13;;;2.07;;
7479;SDS011;3781;42.272;22.658;2023-02-28T13:31:24;1.83;;;1.13;;
7479;SDS011;3781;42.272;22.658;2023-02-28T13:34:05;10.00;;;2.00;;
7479;SDS011;3781;42.272;22.658;2023-02-28T13:36:39;1.07;;;0.93;;
7479;SDS011;3781;42.272;22.658;2023-02-28T13:47:52;3.50;;;2.40;;
7479;SDS011;3781;42.272;22.658;2023-02-28T13:50:22;15.13;;;4.33;;
7479;SDS011;3781;42.272;22.658;2023-02-28T13:53:11;1.57;;;1.07;;
7479;SDS011;3781;42.272;22.658;2023-02-28T13:55:57;6.77;;;2.60;;
7479;SDS011;3781;42.272;22.658;2023-02-28T13:58:42;9.90;;;3.60;;
7479;SDS011;3781;42.272;22.658;2023-02-28T14:01:35;2.30;;;2.10;;
7479;SDS011;3781;42.272;22.658;2023-02-28T14:04:48;2.50;;;2.33;;
7479;SDS011;3781;42.272;22.658;2023-02-28T14:07:19;4.33;;;2.77;;
7479;SDS011;3781;42.272;22.658;2023-02-28T14:09:52;17.37;;;3.57;;
7479;SDS011;3781;42.272;22.658;2023-02-28T14:15:28;6.53;;;3.53;;
7479;SDS011;3781;42.272;22.658;2023-02-28T14:18:05;3.63;;;3.33;;
7479;SDS011;3781;42.272;22.658;2023-02-28T14:20:41;15.53;;;3.30;;
7479;SDS011;3781;42.272;22.658;2023-02-28T14:23:12;4.33;;;1.87;;
7479;SDS011;3781;42.272;22.658;2023-02-28T14:25:52;1.73;;;1.53;;
7479;SDS011;3781;42.272;22.658;2023-02-28T14:28:35;11.10;;;4.23;;
7479;SDS011;3781;42.272;22.658;2023-02-28T14:31:16;3.87;;;2.93;;
7479;SDS011;3781;42.272;22.658;2023-02-28T14:34:02;7.60;;;2.37;;
7479;SDS011;3781;42.272;22.658;2023-02-28T14:36:40;5.27;;;1.93;;
7479;SDS011;3781;42.272;22.658;2023-02-28T14:39:11;9.93;;;3.57;;
7479;SDS011;3781;42.272;22.658;2023-02-28T14:41:40;6.93;;;2.97;;
7479;SDS011;3781;42.272;22.658;2023-02-28T14:44:15;6.30;;;3.13;;
7479;SDS011;3781;42.272;22.658;2023-02-28T14:46:45;9.43;;;3.73;;
7479;SDS011;3781;42.272;22.658;2023-02-28T14:49:16;15.37;;;1.57;;
7479;SDS011;3781;42.272;22.658;2023-02-28T14:51:45;2.17;;;1.87;;
7479;SDS011;3781;42.272;22.658;2023-02-28T14:54:13;2.63;;;2.47;;
7479;SDS011;3781;42.272;22.658;2023-02-28T14:56:42;3.27;;;2.53;;
7479;SDS011;3781;42.272;22.658;2023-02-28T14:59:22;3.13;;;2.83;;
7479;SDS011;3781;42.272;22.658;2023-02-28T15:01:53;4.60;;;1.60;;
7479;SDS011;3781;42.272;22.658;2023-02-28T15:04:47;0.97;;;0.97;;
7479;SDS011;3781;42.272;22.658;2023-02-28T15:07:19;8.93;;;2.33;;
7479;SDS011;3781;42.272;22.658;2023-02-28T15:10:15;2.67;;;2.30;;
7479;SDS011;3781;42.272;22.658;2023-02-28T15:12:46;4.50;;;0.93;;
7479;SDS011;3781;42.272;22.658;2023-02-28T15:15:18;3.13;;;0.80;;
7479;SDS011;3781;42.272;22.658;2023-02-28T15:17:48;5.17;;;1.00;;
7479;SDS011;3781;42.272;22.658;2023-02-28T15:20:19;1.83;;;1.23;;
7479;SDS011;3781;42.272;22.658;2023-02-28T15:22:47;2.20;;;1.83;;
7479;SDS011;3781;42.272;22.658;2023-02-28T15:25:17;1.90;;;1.50;;
7479;SDS011;3781;42.272;22.658;2023-02-28T15:27:47;1.73;;;1.63;;
7479;SDS011;3781;42.272;22.658;2023-02-28T15:30:17;2.93;;;2.20;;
7479;SDS011;3781;42.272;22.658;2023-02-28T15:32:45;11.87;;;1.27;;
7479;SDS011;3781;42.272;22.658;2023-02-28T15:35:31;1.47;;;1.37;;
7479;SDS011;3781;42.272;22.658;2023-02-28T15:38:00;2.73;;;1.93;;
7479;SDS011;3781;42.272;22.658;2023-02-28T15:40:29;0.80;;;0.80;;
7479;SDS011;3781;42.272;22.658;2023-02-28T15:42:59;3.67;;;3.13;;
7479;SDS011;3781;42.272;22.658;2023-02-28T15:45:34;1.67;;;1.17;;
7479;SDS011;3781;42.272;22.658;2023-02-28T15:48:10;2.13;;;1.87;;